Time;durP1;ratioP1;P1;durP2;ratioP2;P2;SDS_P1;SDS_P2;PMS_P1;PMS_P2;Temp;Humidity;BMP_temperature;BMP_pressure;BME280_temperature;BME280_humidity;BME280_pressure;Samples;Min_cycle;Max_cycle;Signal;HPM_P1;HPM_P2
2023/05/25 00:00:27;;;;;;;1.77;1.60;;;19.70;43.90;;;;;;5067660;28;45371;-71
2023/05/25 00:02:54;;;;;;;1.52;1.23;;;19.70;43.90;;;;;;5067444;28;46356;-71
2023/05/25 00:05:26;;;;;;;2.33;1.42;;;19.70;44.00;;;;;;5067922;28;45123;-71
2023/05/25 00:07:54;;;;;;;2.75;1.52;;;19.60;43.90;;;;;;5067403;28;46515;-71
2023/05/25 00:10:20;;;;;;;2.45;1.60;;;19.60;44.00;;;;;;5067591;28;45170;-71
2023/05/25 00:12:47;;;;;;;2.20;1.60;;;19.60;44.00;;;;;;5067672;28;45309;-71
2023/05/25 00:15:14;;;;;;;2.03;1.75;;;19.60;44.00;;;;;;5067769;28;45411;-71
2023/05/25 00:17:42;;;;;;;1.38;1.27;;;19.60;44.00;;;;;;5067356;28;46386;-71
2023/05/25 00:20:12;;;;;;;1.73;1.63;;;19.60;44.00;;;;;;5067570;28;45193;-71
2023/05/25 00:22:43;;;;;;;1.90;1.38;;;19.50;44.10;;;;;;5067763;28;45338;-71
2023/05/25 00:25:10;;;;;;;2.45;1.40;;;19.50;44.00;;;;;;5067632;28;45470;-71
2023/05/25 00:27:37;;;;;;;1.98;1.73;;;19.50;44.10;;;;;;5067214;28;46511;-71
2023/05/25 00:30:04;;;;;;;3.55;1.60;;;19.50;44.20;;;;;;5067339;28;45457;-71
2023/05/25 00:32:31;;;;;;;1.92;1.48;;;19.50;44.10;;;;;;5067675;28;45323;-71
2023/05/25 00:34:59;;;;;;;1.63;1.38;;;19.50;44.20;;;;;;5067459;28;45392;-71
2023/05/25 00:37:26;;;;;;;1.60;1.40;;;19.50;44.20;;;;;;5067017;28;46818;-71
2023/05/25 00:39:53;;;;;;;2.63;1.70;;;19.50;44.20;;;;;;5067051;28;45307;-70
2023/05/25 00:42:20;;;;;;;2.10;1.58;;;19.40;44.20;;;;;;5067053;28;45348;-71
2023/05/25 00:44:48;;;;;;;3.28;1.77;;;19.40;44.30;;;;;;5067435;28;45300;-71
2023/05/25 00:47:15;;;;;;;1.65;1.40;;;19.40;44.30;;;;;;5066352;28;45338;-71
2023/05/25 00:49:42;;;;;;;2.30;1.50;;;19.40;44.20;;;;;;5066580;28;45131;-71
2023/05/25 00:52:10;;;;;;;1.83;1.50;;;19.40;44.80;;;;;;5067049;28;45348;-69
2023/05/25 00:54:37;;;;;;;2.63;1.60;;;19.40;44.30;;;;;;5066885;28;45490;-69
2023/05/25 00:57:04;;;;;;;1.45;1.33;;;19.40;44.30;;;;;;5066724;28;45245;-72
2023/05/25 00:59:34;;;;;;;1.50;1.40;;;19.30;44.20;;;;;;5067009;28;45283;-69
2023/05/25 01:02:03;;;;;;;1.90;1.35;;;19.40;44.40;;;;;;5066794;28;45313;-71
2023/05/25 01:04:30;;;;;;;1.73;1.20;;;19.40;44.40;;;;;;5067342;28;45196;-72
2023/05/25 01:06:57;;;;;;;3.33;1.50;;;19.40;44.40;;;;;;5066518;28;46627;-71
2023/05/25 01:09:25;;;;;;;1.65;1.50;;;19.30;44.30;;;;;;5066543;28;45363;-72
2023/05/25 01:11:52;;;;;;;1.52;1.38;;;19.30;44.30;;;;;;5066720;28;45369;-71
2023/05/25 01:14:20;;;;;;;1.98;1.58;;;19.30;44.30;;;;;;5066692;28;45400;-71
2023/05/25 01:16:48;;;;;;;2.55;1.60;;;19.30;44.40;;;;;;5066370;28;46485;-71
2023/05/25 01:19:14;;;;;;;1.20;1.10;;;19.30;44.40;;;;;;5066449;28;45360;-71
2023/05/25 01:21:46;;;;;;;1.83;1.30;;;19.30;44.40;;;;;;5066513;28;45289;-71
2023/05/25 01:24:21;;;;;;;2.17;1.30;;;19.30;44.40;;;;;;5066745;28;45208;-71
2023/05/25 01:26:54;;;;;;;1.40;1.23;;;19.30;44.40;;;;;;5066368;28;46677;-71
2023/05/25 01:29:21;;;;;;;1.67;1.20;;;19.30;45.10;;;;;;5066361;28;45193;-71
2023/05/25 01:31:48;;;;;;;2.55;1.20;;;19.30;44.50;;;;;;5066353;28;45170;-71
2023/05/25 01:34:14;;;;;;;1.90;1.23;;;19.30;45.10;;;;;;5066391;28;45389;-71
2023/05/25 01:36:49;;;;;;;1.55;1.45;;;19.30;44.50;;;;;;5066297;28;45467;-71
2023/05/25 01:39:17;;;;;;;2.17;1.40;;;19.20;44.40;;;;;;5066339;28;45269;-71
2023/05/25 01:41:43;;;;;;;2.38;1.10;;;19.20;44.40;;;;;;5066141;28;45222;-71
2023/05/25 01:44:10;;;;;;;2.75;1.50;;;19.20;44.50;;;;;;5066346;28;45179;-71
2023/05/25 01:46:38;;;;;;;2.25;1.63;;;19.20;44.50;;;;;;5066190;28;46425;-71
2023/05/25 01:49:11;;;;;;;2.40;1.10;;;19.20;44.50;;;;;;5066094;28;45316;-71
2023/05/25 01:51:39;;;;;;;2.63;1.27;;;19.20;44.50;;;;;;5066352;28;45199;-71
2023/05/25 01:54:12;;;;;;;1.63;1.33;;;19.20;44.50;;;;;;5066131;28;45272;-71
2023/05/25 01:56:38;;;;;;;2.35;1.27;;;19.20;44.60;;;;;;5065810;28;46744;-71
2023/05/25 01:59:05;;;;;;;1.30;1.20;;;19.20;44.60;;;;;;5065674;28;45291;-71
2023/05/25 02:01:32;;;;;;;2.95;1.70;;;19.10;44.60;;;;;;5065707;28;45229;-71
2023/05/25 02:03:59;;;;;;;1.20;1.10;;;19.10;44.60;;;;;;5066160;28;45169;-71
2023/05/25 02:06:25;;;;;;;1.83;1.30;;;19.10;44.50;;;;;;5065726;28;45243;-71
2023/05/25 02:08:52;;;;;;;2.85;1.40;;;19.10;44.60;;;;;;5065794;28;45134;-71
2023/05/25 02:11:20;;;;;;;1.55;1.40;;;19.10;44.60;;;;;;5065963;28;45392;-71
2023/05/25 02:13:47;;;;;;;2.28;1.40;;;19.10;44.60;;;;;;5066203;28;45450;-70
2023/05/25 02:16:14;;;;;;;2.00;1.52;;;19.10;44.70;;;;;;5065565;28;46650;-71
2023/05/25 02:18:43;;;;;;;2.15;1.30;;;19.10;44.70;;;;;;5065607;28;45320;-70
2023/05/25 02:21:10;;;;;;;4.50;1.30;;;19.10;44.70;;;;;;5065749;28;45257;-71
2023/05/25 02:23:37;;;;;;;1.45;1.20;;;19.10;44.70;;;;;;5065857;28;45375;-71
2023/05/25 02:26:04;;;;;;;1.50;1.27;;;19.10;44.70;;;;;;5065886;28;45287;-71
2023/05/25 02:28:32;;;;;;;2.10;1.63;;;19.00;44.60;;;;;;5065417;28;45195;-71
2023/05/25 02:30:59;;;;;;;3.42;1.55;;;19.00;44.60;;;;;;5065899;28;45185;-71
2023/05/25 02:33:25;;;;;;;3.15;1.40;;;19.00;44.70;;;;;;5065676;28;45237;-71
2023/05/25 02:35:52;;;;;;;1.30;1.10;;;19.00;44.70;;;;;;5065235;28;45358;-72
2023/05/25 02:38:19;;;;;;;3.35;1.08;;;19.00;44.80;;;;;;5065411;28;45193;-71
2023/05/25 02:40:46;;;;;;;1.08;0.98;;;19.00;44.70;;;;;;5065327;28;45241;-71
2023/05/25 02:43:13;;;;;;;1.50;1.30;;;19.00;44.80;;;;;;5065608;28;45241;-72
2023/05/25 02:45:41;;;;;;;1.95;1.30;;;19.00;44.70;;;;;;5065138;28;47215;-71
2023/05/25 02:48:08;;;;;;;2.03;1.30;;;19.00;44.80;;;;;;5065399;28;45445;-71
2023/05/25 02:50:34;;;;;;;1.83;1.00;;;19.00;44.90;;;;;;5065294;28;45146;-70
2023/05/25 02:53:01;;;;;;;2.25;1.40;;;18.90;44.80;;;;;;5065568;28;45474;-71
2023/05/25 02:55:28;;;;;;;2.58;1.40;;;18.90;44.80;;;;;;5065009;28;45401;-70
2023/05/25 02:57:55;;;;;;;1.23;1.10;;;18.90;44.80;;;;;;5065115;28;45373;-71
2023/05/25 03:00:22;;;;;;;3.10;1.40;;;18.90;44.80;;;;;;5065520;28;45362;-71
2023/05/25 03:02:50;;;;;;;2.47;1.23;;;18.90;44.80;;;;;;5064992;28;45400;-71
2023/05/25 03:05:17;;;;;;;1.98;1.33;;;18.90;44.90;;;;;;5065166;28;46449;-71
2023/05/25 03:07:44;;;;;;;2.10;1.48;;;18.90;44.90;;;;;;5065166;28;45268;-71
2023/05/25 03:10:11;;;;;;;1.52;1.40;;;18.90;44.90;;;;;;5065050;28;45297;-71
2023/05/25 03:12:38;;;;;;;1.25;1.10;;;18.80;44.90;;;;;;5068291;28;45400;-71
2023/05/25 03:15:06;;;;;;;2.13;1.48;;;18.80;44.90;;;;;;5068323;28;45190;-71
2023/05/25 03:17:32;;;;;;;2.53;1.23;;;18.80;44.90;;;;;;5068435;28;45130;-71
2023/05/25 03:20:01;;;;;;;1.65;1.23;;;18.80;45.30;;;;;;5068725;28;45467;-70
2023/05/25 03:22:27;;;;;;;1.60;1.30;;;18.80;45.00;;;;;;5068982;28;45323;-70
2023/05/25 03:24:54;;;;;;;1.88;1.20;;;18.80;45.00;;;;;;5068308;28;46453;-70
2023/05/25 03:27:21;;;;;;;2.78;1.15;;;18.80;45.10;;;;;;5068218;28;45133;-71
2023/05/25 03:29:49;;;;;;;2.45;1.35;;;18.80;45.00;;;;;;5068400;28;45196;-70
2023/05/25 03:32:15;;;;;;;1.40;1.30;;;18.80;45.10;;;;;;5068476;28;45340;-71
2023/05/25 03:34:43;;;;;;;3.28;1.40;;;18.80;45.10;;;;;;5068088;28;46417;-71
2023/05/25 03:37:11;;;;;;;1.17;1.08;;;18.80;45.10;;;;;;5068209;28;45275;-71
2023/05/25 03:39:38;;;;;;;1.65;1.27;;;18.80;45.10;;;;;;5068115;28;45193;-71
2023/05/25 03:42:06;;;;;;;3.78;1.40;;;18.80;45.10;;;;;;5068414;28;45346;-71
2023/05/25 03:44:33;;;;;;;1.13;1.05;;;18.80;45.20;;;;;;5067929;28;45465;-71
2023/05/25 03:46:59;;;;;;;1.65;1.20;;;18.80;45.20;;;;;;5067998;28;45243;-70
2023/05/25 03:49:26;;;;;;;1.77;1.30;;;18.80;45.20;;;;;;5068340;28;45126;-70
2023/05/25 03:51:53;;;;;;;1.92;1.48;;;18.70;45.20;;;;;;5068167;28;45495;-70
2023/05/25 03:54:21;;;;;;;2.22;1.40;;;18.80;45.30;;;;;;5067774;28;46621;-70
2023/05/25 03:56:48;;;;;;;3.00;1.35;;;18.80;45.30;;;;;;5067724;28;45296;-70
2023/05/25 03:59:15;;;;;;;2.17;1.35;;;18.80;45.30;;;;;;5065333;28;45234;-70
2023/05/25 04:01:42;;;;;;;1.45;1.35;;;18.70;45.20;;;;;;5067903;28;45433;-70
2023/05/25 04:04:10;;;;;;;1.35;1.25;;;18.70;45.30;;;;;;5067652;28;46853;-71
2023/05/25 04:06:37;;;;;;;2.08;1.20;;;18.70;45.30;;;;;;5067605;28;45348;-71
2023/05/25 04:09:04;;;;;;;2.00;1.10;;;18.70;45.40;;;;;;5067907;28;45311;-70
2023/05/25 04:11:32;;;;;;;3.30;1.35;;;18.70;45.90;;;;;;5067852;28;45129;-71
2023/05/25 04:13:59;;;;;;;1.35;1.20;;;18.70;45.30;;;;;;5067959;28;45130;-70
2023/05/25 04:16:26;;;;;;;2.78;1.40;;;18.70;45.40;;;;;;5067462;28;45297;-71
2023/05/25 04:18:53;;;;;;;2.70;1.27;;;18.70;45.40;;;;;;5067481;28;45252;-70
2023/05/25 04:21:20;;;;;;;1.40;1.30;;;18.70;45.40;;;;;;5067630;28;45226;-71
2023/05/25 04:23:47;;;;;;;3.00;1.50;;;18.70;45.40;;;;;;5067064;28;46394;-71
2023/05/25 04:26:14;;;;;;;2.83;1.60;;;18.70;45.40;;;;;;5067400;28;45311;-71
2023/05/25 04:28:42;;;;;;;3.05;1.60;;;18.70;45.50;;;;;;5067462;28;45301;-71
2023/05/25 04:31:11;;;;;;;2.08;1.33;;;18.70;45.50;;;;;;5067664;28;45660;-71
2023/05/25 04:33:38;;;;;;;3.25;1.33;;;18.60;45.40;;;;;;5067053;28;47014;-71
2023/05/25 04:36:05;;;;;;;2.90;1.30;;;18.70;45.50;;;;;;5067333;28;45409;-72
2023/05/25 04:38:32;;;;;;;2.38;1.67;;;18.70;45.60;;;;;;5067186;28;45391;-71
2023/05/25 04:41:00;;;;;;;1.95;1.20;;;18.70;45.50;;;;;;5067182;28;45458;-71
2023/05/25 04:43:28;;;;;;;3.17;1.45;;;18.70;45.60;;;;;;5067141;28;46841;-71
2023/05/25 04:45:56;;;;;;;2.22;1.40;;;18.70;45.60;;;;;;5066858;28;45308;-71
2023/05/25 04:48:24;;;;;;;1.10;1.00;;;18.70;45.60;;;;;;5067083;28;45392;-71
2023/05/25 04:50:52;;;;;;;2.40;1.20;;;18.60;45.60;;;;;;5067042;28;45649;-71
2023/05/25 04:53:19;;;;;;;1.42;1.27;;;18.60;45.50;;;;;;5066819;28;45182;-71
2023/05/25 04:55:46;;;;;;;3.47;1.50;;;18.60;45.60;;;;;;5066652;28;45332;-72
2023/05/25 04:58:13;;;;;;;1.70;1.30;;;18.60;45.60;;;;;;5067217;28;45280;-71
2023/05/25 05:00:40;;;;;;;2.35;1.42;;;18.60;45.60;;;;;;5067128;28;45341;-71
2023/05/25 05:03:08;;;;;;;1.42;1.30;;;18.60;45.60;;;;;;5066685;28;45427;-71
2023/05/25 05:05:35;;;;;;;2.25;1.40;;;18.60;45.60;;;;;;5066751;28;45181;-71
2023/05/25 05:08:03;;;;;;;3.00;1.85;;;18.60;45.60;;;;;;5066902;28;45391;-71
2023/05/25 05:10:29;;;;;;;2.72;1.40;;;18.60;45.60;;;;;;5066915;28;45306;-71
2023/05/25 05:12:56;;;;;;;2.95;1.45;;;18.60;45.60;;;;;;5066537;28;46407;-71
2023/05/25 05:15:23;;;;;;;1.55;1.20;;;18.60;45.70;;;;;;5066538;28;45312;-71
2023/05/25 05:17:50;;;;;;;2.42;1.55;;;18.60;45.60;;;;;;5066738;28;45123;-71
2023/05/25 05:20:19;;;;;;;1.65;1.15;;;18.60;45.60;;;;;;5066776;28;45308;-71
2023/05/25 05:22:46;;;;;;;2.28;1.27;;;18.60;45.60;;;;;;5066392;28;45474;-71
2023/05/25 05:25:12;;;;;;;2.47;1.30;;;18.60;45.60;;;;;;5066357;28;45283;-71
2023/05/25 05:27:39;;;;;;;2.90;1.50;;;18.60;45.70;;;;;;5066593;28;45217;-71
2023/05/25 05:30:07;;;;;;;2.40;1.52;;;18.60;45.70;;;;;;5066629;28;45256;-71
2023/05/25 05:32:34;;;;;;;1.20;1.10;;;18.60;45.70;;;;;;5066245;28;45343;-71
2023/05/25 05:35:01;;;;;;;4.13;1.52;;;18.60;45.70;;;;;;5065928;28;45152;-71
2023/05/25 05:37:29;;;;;;;1.73;1.20;;;18.60;45.70;;;;;;5066389;28;45265;-71
2023/05/25 05:39:56;;;;;;;3.75;1.33;;;18.60;46.30;;;;;;5066683;28;45313;-71
2023/05/25 05:42:23;;;;;;;2.10;1.35;;;18.60;45.70;;;;;;5045818;28;46692;-71
2023/05/25 05:44:49;;;;;;;2.13;1.60;;;18.60;45.80;;;;;;5045789;28;45230;-71
2023/05/25 05:47:16;;;;;;;2.40;1.35;;;18.60;45.80;;;;;;5047635;28;45290;-70
2023/05/25 05:49:43;;;;;;;3.75;1.88;;;18.60;45.80;;;;;;5066221;28;45470;-71
2023/05/25 05:52:10;;;;;;;2.90;1.58;;;18.60;45.90;;;;;;5065721;28;46401;-71
2023/05/25 05:54:38;;;;;;;2.80;1.40;;;18.60;45.90;;;;;;5066190;28;45323;-70
2023/05/25 05:57:05;;;;;;;2.20;1.52;;;18.60;45.80;;;;;;5066015;28;45322;-71
2023/05/25 05:59:32;;;;;;;1.63;1.50;;;18.60;45.90;;;;;;5066543;28;45424;-71
2023/05/25 06:01:59;;;;;;;2.00;1.60;;;18.60;45.90;;;;;;5065483;28;46460;-71
2023/05/25 06:04:27;;;;;;;4.60;1.67;;;18.60;45.90;;;;;;5066125;28;45355;-71
2023/05/25 06:06:54;;;;;;;2.58;1.38;;;18.60;45.90;;;;;;5065988;28;45305;-71
2023/05/25 06:09:21;;;;;;;2.05;1.60;;;18.60;45.90;;;;;;5065898;28;45159;-71
2023/05/25 06:11:49;;;;;;;2.30;1.38;;;18.60;45.90;;;;;;5065610;28;47583;-71
2023/05/25 06:14:16;;;;;;;2.67;1.98;;;18.60;45.90;;;;;;5065607;28;45315;-71
2023/05/25 06:16:43;;;;;;;1.83;1.40;;;18.70;45.90;;;;;;5065642;28;45159;-71
2023/05/25 06:19:10;;;;;;;1.58;1.27;;;18.70;46.00;;;;;;5065811;28;45331;-71
2023/05/25 06:21:37;;;;;;;2.83;1.63;;;18.70;46.00;;;;;;5065482;28;46389;-71
2023/05/25 06:24:04;;;;;;;2.38;1.48;;;18.70;46.00;;;;;;5065464;28;45184;-71
2023/05/25 06:26:31;;;;;;;1.58;1.33;;;18.70;45.90;;;;;;5065728;28;45324;-71
2023/05/25 06:29:00;;;;;;;2.45;1.55;;;18.70;45.90;;;;;;5065938;28;45465;-71
2023/05/25 06:31:27;;;;;;;3.38;1.58;;;18.70;46.00;;;;;;5065530;28;45832;-71
2023/05/25 06:33:55;;;;;;;2.80;1.63;;;18.70;45.90;;;;;;5065413;28;45252;-71
2023/05/25 06:36:21;;;;;;;2.63;1.42;;;18.70;45.90;;;;;;5065403;28;45244;-71
2023/05/25 06:38:48;;;;;;;1.75;1.40;;;18.70;45.90;;;;;;5065832;28;45324;-71
2023/05/25 06:41:15;;;;;;;2.13;1.58;;;18.70;45.90;;;;;;5065255;28;46341;-71
2023/05/25 06:43:42;;;;;;;4.15;1.63;;;18.70;46.00;;;;;;5065239;28;45131;-71
2023/05/25 06:46:12;;;;;;;2.95;1.60;;;18.80;46.00;;;;;;5066321;28;45184;-71
2023/05/25 06:48:39;;;;;;;2.78;1.50;;;18.80;46.00;;;;;;5068919;28;45363;-71
2023/05/25 06:51:06;;;;;;;2.33;1.77;;;18.80;46.00;;;;;;5068633;28;46369;-71
2023/05/25 06:53:32;;;;;;;3.90;1.80;;;18.80;46.00;;;;;;5068736;28;45194;-71
2023/05/25 06:55:59;;;;;;;1.23;1.13;;;18.80;46.00;;;;;;5068699;28;45207;-71
2023/05/25 06:58:26;;;;;;;1.85;1.70;;;18.80;46.00;;;;;;5069216;28;45478;-71
2023/05/25 07:00:53;;;;;;;2.15;1.50;;;18.80;46.00;;;;;;5068625;28;45831;-71
2023/05/25 07:03:21;;;;;;;1.92;1.33;;;18.80;46.00;;;;;;5068147;28;45316;-71
2023/05/25 07:05:53;;;;;;;3.00;1.92;;;18.80;46.00;;;;;;5068493;28;45320;-71
2023/05/25 07:08:20;;;;;;;2.58;1.60;;;18.80;46.10;;;;;;5068791;28;45341;-71
2023/05/25 07:10:47;;;;;;;2.17;1.60;;;18.80;46.10;;;;;;5068304;28;45545;-71
2023/05/25 07:13:14;;;;;;;3.03;1.55;;;18.80;46.10;;;;;;5068372;28;45286;-71
2023/05/25 07:15:40;;;;;;;2.30;1.73;;;18.90;46.20;;;;;;5068470;28;45192;-71
2023/05/25 07:18:11;;;;;;;3.20;1.70;;;18.90;46.10;;;;;;5068615;28;45403;-71
2023/05/25 07:20:40;;;;;;;4.85;1.92;;;18.90;46.10;;;;;;5068218;28;45280;-71
2023/05/25 07:23:08;;;;;;;3.28;1.45;;;18.90;46.20;;;;;;5068124;28;45346;-71
2023/05/25 07:25:35;;;;;;;4.75;1.70;;;18.90;46.20;;;;;;5068372;28;45343;-71
2023/05/25 07:28:02;;;;;;;1.75;1.30;;;18.90;46.20;;;;;;5068411;28;45396;-71
2023/05/25 07:30:28;;;;;;;4.20;1.92;;;18.90;46.20;;;;;;5067956;28;46435;-71
2023/05/25 07:32:55;;;;;;;3.63;1.55;;;18.90;46.30;;;;;;5068153;28;45297;-71
2023/05/25 07:35:22;;;;;;;2.13;1.40;;;18.90;46.30;;;;;;5068283;28;45348;-71
2023/05/25 07:37:58;;;;;;;4.40;1.83;;;18.90;46.30;;;;;;5068299;28;45292;-71
2023/05/25 07:40:24;;;;;;;2.55;1.60;;;18.90;46.30;;;;;;5067763;28;46648;-71
2023/05/25 07:42:51;;;;;;;1.98;1.40;;;18.90;46.30;;;;;;5068059;28;45341;-70
2023/05/25 07:45:18;;;;;;;2.63;1.40;;;18.90;46.40;;;;;;5068254;28;45308;-72
2023/05/25 07:47:45;;;;;;;2.03;1.50;;;18.90;46.40;;;;;;5068196;28;45415;-71
2023/05/25 07:50:12;;;;;;;3.10;1.55;;;18.90;46.30;;;;;;5067735;28;46373;-71
2023/05/25 07:52:38;;;;;;;4.28;1.67;;;18.90;46.40;;;;;;5067848;28;45293;-70
2023/05/25 07:55:07;;;;;;;2.72;1.42;;;19.00;46.30;;;;;;5068066;28;45364;-71
2023/05/25 07:57:34;;;;;;;3.40;1.58;;;19.00;46.30;;;;;;5067653;28;45332;-71
2023/05/25 08:00:01;;;;;;;2.63;1.75;;;19.00;46.20;;;;;;5067635;28;45233;-71
2023/05/25 08:02:28;;;;;;;2.40;1.67;;;19.10;46.30;;;;;;5067802;28;45280;-71
2023/05/25 08:04:55;;;;;;;3.53;1.73;;;19.10;46.20;;;;;;5068163;28;45303;-71
2023/05/25 08:07:23;;;;;;;2.08;1.45;;;19.10;46.20;;;;;;5068171;28;45416;-70
2023/05/25 08:09:50;;;;;;;3.35;1.52;;;19.10;46.20;;;;;;5068125;28;46673;-71
2023/05/25 08:12:18;;;;;;;2.40;1.67;;;19.10;46.20;;;;;;5067883;28;45276;-71
2023/05/25 08:14:45;;;;;;;1.75;1.63;;;19.10;46.10;;;;;;5068304;28;45320;-71
2023/05/25 08:17:12;;;;;;;3.17;1.77;;;19.20;46.00;;;;;;5068198;28;45358;-71
2023/05/25 08:19:39;;;;;;;2.85;1.50;;;19.20;46.70;;;;;;5067607;28;45209;-71
2023/05/25 08:22:05;;;;;;;2.22;1.67;;;19.20;46.00;;;;;;5067630;28;45193;-70
2023/05/25 08:24:32;;;;;;;2.30;1.45;;;19.30;46.10;;;;;;5067599;28;45540;-71
2023/05/25 08:27:00;;;;;;;3.00;1.70;;;19.30;46.00;;;;;;5067994;28;45408;-70
2023/05/25 08:29:29;;;;;;;3.17;1.67;;;19.30;46.00;;;;;;5067668;28;45552;-71
2023/05/25 08:31:56;;;;;;;2.25;1.65;;;19.30;45.90;;;;;;5067406;28;45138;-70
2023/05/25 08:34:23;;;;;;;3.28;1.63;;;19.40;45.90;;;;;;5067658;28;45342;-71
2023/05/25 08:36:50;;;;;;;2.55;1.60;;;19.40;45.90;;;;;;5067650;28;45408;-71
2023/05/25 08:39:17;;;;;;;2.63;1.90;;;19.40;45.90;;;;;;5067337;28;45361;-71
2023/05/25 08:41:45;;;;;;;3.92;1.95;;;19.50;46.00;;;;;;5067426;28;45235;-71
2023/05/25 08:44:13;;;;;;;4.07;1.85;;;19.50;46.00;;;;;;5067457;28;45154;-70
2023/05/25 08:46:41;;;;;;;2.60;1.98;;;19.50;46.10;;;;;;5067631;28;45322;-71
2023/05/25 08:49:10;;;;;;;2.35;1.90;;;19.50;46.10;;;;;;5067277;28;45466;-71
2023/05/25 08:51:38;;;;;;;2.35;1.42;;;19.50;46.20;;;;;;5067287;28;45237;-71
2023/05/25 08:54:07;;;;;;;2.30;1.85;;;19.50;46.20;;;;;;5067306;28;45288;-71
2023/05/25 08:56:36;;;;;;;3.28;1.83;;;19.50;46.20;;;;;;5067129;28;45552;-71
2023/05/25 08:59:06;;;;;;;2.97;1.80;;;19.60;46.30;;;;;;5066960;28;45213;-71
2023/05/25 09:01:33;;;;;;;4.20;1.80;;;19.60;46.20;;;;;;5066625;28;45267;-70
2023/05/25 09:04:01;;;;;;;3.08;1.80;;;19.60;46.30;;;;;;5067286;28;45188;-70
2023/05/25 09:06:28;;;;;;;4.05;2.00;;;19.60;46.50;;;;;;5067189;28;45404;-71
2023/05/25 09:08:55;;;;;;;3.10;2.03;;;19.70;46.30;;;;;;5066052;28;47582;-71
2023/05/25 09:11:23;;;;;;;3.10;1.75;;;19.70;46.30;;;;;;5066804;28;45308;-71
2023/05/25 09:13:49;;;;;;;3.78;2.20;;;19.70;46.30;;;;;;5067092;28;45198;-70
2023/05/25 09:16:16;;;;;;;4.97;2.20;;;19.80;46.30;;;;;;5067073;28;45227;-70
2023/05/25 09:18:43;;;;;;;3.10;1.90;;;19.80;46.30;;;;;;5066470;28;46418;-70
2023/05/25 09:21:11;;;;;;;2.40;1.88;;;19.90;46.30;;;;;;5066384;28;45337;-71
2023/05/25 09:23:38;;;;;;;3.90;1.83;;;19.90;46.30;;;;;;5064011;28;45501;-71
2023/05/25 09:26:05;;;;;;;4.00;1.80;;;19.90;46.50;;;;;;5066643;28;45175;-71
2023/05/25 09:28:31;;;;;;;4.82;2.10;;;20.00;46.80;;;;;;5066267;28;46337;-71
2023/05/25 09:30:58;;;;;;;7.47;2.25;;;20.00;47.00;;;;;;5066362;28;45447;-71
2023/05/25 09:33:25;;;;;;;4.45;2.10;;;20.10;47.20;;;;;;5066983;28;45328;-68
2023/05/25 09:35:52;;;;;;;3.25;2.00;;;20.10;47.30;;;;;;5066851;27;45494;-71
2023/05/25 09:38:20;;;;;;;4.60;1.90;;;20.10;47.50;;;;;;5066336;28;46412;-70
2023/05/25 09:40:47;;;;;;;4.60;2.17;;;20.20;47.50;;;;;;5066215;28;45418;-71
2023/05/25 09:43:14;;;;;;;5.07;2.15;;;20.20;47.50;;;;;;5066318;27;45406;-70
2023/05/25 09:45:42;;;;;;;3.67;2.40;;;20.30;47.50;;;;;;5064481;28;45375;-71
2023/05/25 09:48:08;;;;;;;9.40;2.50;;;20.30;47.40;;;;;;5065872;28;46801;-71
2023/05/25 09:50:36;;;;;;;4.85;2.28;;;20.40;47.40;;;;;;5062661;28;45187;-71
2023/05/25 09:53:03;;;;;;;5.43;2.47;;;20.40;47.30;;;;;;5065375;28;45217;-70
2023/05/25 09:55:31;;;;;;;5.88;2.97;;;20.50;47.40;;;;;;5065619;28;45459;-71
2023/05/25 09:57:57;;;;;;;5.05;2.60;;;20.50;47.50;;;;;;5064912;28;45958;-71
2023/05/25 10:00:26;;;;;;;4.97;2.80;;;20.50;47.60;;;;;;5064825;28;45248;-71
2023/05/25 10:02:53;;;;;;;4.07;2.53;;;20.60;47.60;;;;;;5063169;28;45413;-72
2023/05/25 10:05:20;;;;;;;3.85;2.40;;;20.60;47.50;;;;;;5065794;28;45482;-72
2023/05/25 10:07:47;;;;;;;3.20;2.45;;;20.70;47.50;;;;;;5065743;28;46786;-68
2023/05/25 10:10:15;;;;;;;6.05;2.45;;;20.70;47.50;;;;;;5065816;28;45311;-68
2023/05/25 10:12:44;;;;;;;9.05;2.70;;;20.70;47.50;;;;;;5065910;28;45185;-70
2023/05/25 10:15:12;;;;;;;7.07;2.53;;;20.70;47.60;;;;;;5066587;28;45376;-70
2023/05/25 10:17:42;;;;;;;6.32;2.40;;;20.80;47.60;;;;;;5066028;28;46381;-70
2023/05/25 10:20:10;;;;;;;5.00;2.72;;;20.80;47.60;;;;;;5066474;28;45368;-69
2023/05/25 10:22:39;;;;;;;5.15;2.78;;;20.90;47.60;;;;;;5079088;28;45355;-70
2023/05/25 10:25:10;;;;;;;5.65;2.50;;;20.90;47.50;;;;;;5076725;28;45205;-68
2023/05/25 10:27:39;;;;;;;3.92;2.67;;;20.90;47.50;;;;;;5078515;28;46359;-69
2023/05/25 10:30:08;;;;;;;3.92;2.38;;;21.00;48.10;;;;;;5077269;28;45396;-69
2023/05/25 10:32:36;;;;;;;5.32;2.70;;;21.00;47.50;;;;;;5079561;27;45347;-69
2023/05/25 10:35:04;;;;;;;3.75;2.70;;;21.10;47.50;;;;;;5076908;28;45335;-70
2023/05/25 10:37:30;;;;;;;3.90;2.40;;;21.10;47.50;;;;;;5079155;27;45450;-70
2023/05/25 10:39:57;;;;;;;4.47;2.60;;;21.20;47.50;;;;;;5079006;27;45265;-70
2023/05/25 10:42:24;;;;;;;4.68;2.15;;;21.20;47.50;;;;;;5076953;28;45316;-70
2023/05/25 10:44:51;;;;;;;7.55;2.47;;;21.20;47.40;;;;;;5076811;27;45278;-70
2023/05/25 10:47:19;;;;;;;5.85;2.22;;;21.30;47.40;;;;;;5079089;27;45471;-70
2023/05/25 10:49:53;;;;;;;6.25;2.45;;;21.30;47.40;;;;;;5077805;27;45406;-70
2023/05/25 10:52:20;;;;;;;2.95;2.63;;;21.40;47.40;;;;;;5081774;28;45294;-67
2023/05/25 10:54:47;;;;;;;3.92;2.20;;;21.40;47.40;;;;;;5077659;28;45278;-70
2023/05/25 10:57:18;;;;;;;2.70;2.13;;;21.40;47.40;;;;;;5076662;27;45466;-70
2023/05/25 10:59:49;;;;;;;5.95;2.22;;;21.50;47.30;;;;;;5075961;28;45259;-70
2023/05/25 11:02:16;;;;;;;4.57;2.17;;;21.50;47.30;;;;;;5078398;28;45454;-70
2023/05/25 11:04:46;;;;;;;2.88;2.25;;;21.60;47.20;;;;;;5076995;28;45337;-69
2023/05/25 11:07:18;;;;;;;2.88;2.35;;;21.60;47.10;;;;;;5076231;27;46420;-70
2023/05/25 11:09:57;;;;;;;5.95;2.45;;;21.70;47.10;;;;;;5074338;28;45301;-70
2023/05/25 11:12:23;;;;;;;2.55;2.03;;;21.80;47.70;;;;;;5076096;28;45406;-70
2023/05/25 11:15:17;;;;;;;4.65;2.35;;;21.80;46.90;;;;;;5075907;28;45384;-69
2023/05/25 11:17:57;;;;;;;4.22;2.20;;;21.90;46.90;;;;;;5075842;28;47084;-70
2023/05/25 11:20:27;;;;;;;3.63;2.40;;;21.90;46.80;;;;;;5076019;28;45386;-70
2023/05/25 11:22:54;;;;;;;3.70;2.08;;;22.00;46.70;;;;;;5080352;28;45415;-71
2023/05/25 11:25:39;;;;;;;4.47;2.25;;;22.10;46.70;;;;;;5081512;27;45454;-70
2023/05/25 11:28:06;;;;;;;3.58;2.58;;;22.10;46.60;;;;;;5074193;28;45480;-70
2023/05/25 11:30:33;;;;;;;3.20;2.53;;;22.20;46.50;;;;;;5073586;27;45280;-70
2023/05/25 11:33:02;;;;;;;2.65;2.03;;;22.20;46.40;;;;;;5074217;28;45365;-70
2023/05/25 11:35:40;;;;;;;3.97;2.20;;;22.30;46.40;;;;;;5077178;28;45295;-71
2023/05/25 11:38:07;;;;;;;4.35;2.63;;;22.30;46.30;;;;;;5075667;28;45446;-70
2023/05/25 11:40:34;;;;;;;2.25;2.05;;;22.40;46.30;;;;;;5077456;28;45662;-70
2023/05/25 11:43:02;;;;;;;3.50;2.53;;;22.50;46.20;;;;;;5075069;27;45289;-70
2023/05/25 11:45:30;;;;;;;2.35;2.10;;;22.50;46.20;;;;;;5078055;28;45278;-70
2023/05/25 11:47:58;;;;;;;2.22;2.03;;;22.60;46.20;;;;;;5074851;28;46397;-70
2023/05/25 11:50:25;;;;;;;3.85;2.60;;;22.70;46.10;;;;;;5078175;27;45362;-71
2023/05/25 11:52:53;;;;;;;3.00;2.33;;;22.70;46.00;;;;;;5078419;27;45504;-70
2023/05/25 11:55:20;;;;;;;3.28;2.40;;;22.70;46.00;;;;;;5081746;27;45412;-70
2023/05/25 11:57:47;;;;;;;3.28;2.70;;;22.80;45.90;;;;;;5067100;27;47820;-69
2023/05/25 12:00:23;;;;;;;4.50;2.30;;;22.90;45.90;;;;;;5067195;28;45333;-69
2023/05/25 12:02:50;;;;;;;5.30;2.60;;;22.90;45.90;;;;;;5066570;28;45261;-69
2023/05/25 12:05:17;;;;;;;2.65;2.13;;;23.00;45.80;;;;;;5067332;28;45246;-70
2023/05/25 12:07:45;;;;;;;3.83;2.45;;;23.00;45.80;;;;;;5066814;28;46725;-71
2023/05/25 12:10:15;;;;;;;4.05;2.50;;;23.10;45.80;;;;;;5066740;28;45355;-70
2023/05/25 12:12:42;;;;;;;3.65;2.53;;;23.10;45.60;;;;;;5064137;28;45254;-70
2023/05/25 12:15:10;;;;;;;4.93;2.30;;;23.20;45.60;;;;;;5064103;28;45335;-70
2023/05/25 12:17:37;;;;;;;2.70;2.20;;;23.20;46.20;;;;;;5063599;28;46458;-69
2023/05/25 12:20:06;;;;;;;3.83;2.50;;;23.30;45.60;;;;;;5064280;28;45415;-71
2023/05/25 12:22:33;;;;;;;2.50;2.28;;;23.30;45.50;;;;;;5064086;28;45428;-68
2023/05/25 12:25:00;;;;;;;5.97;2.70;;;23.30;45.40;;;;;;5065352;28;45344;-71
2023/05/25 12:27:28;;;;;;;4.32;2.45;;;23.40;45.30;;;;;;5066567;28;46379;-70
2023/05/25 12:29:56;;;;;;;6.00;2.47;;;23.50;45.60;;;;;;5064039;28;45422;-71
2023/05/25 12:32:23;;;;;;;7.03;3.60;;;23.50;45.80;;;;;;5064570;28;45524;-70
2023/05/25 12:34:49;;;;;;;6.30;3.30;;;23.50;45.00;;;;;;5067084;28;45338;-69
2023/05/25 12:37:19;;;;;;;4.75;2.95;;;23.50;45.40;;;;;;5075564;27;46732;-72
2023/05/25 12:39:47;;;;;;;4.63;2.90;;;23.60;45.60;;;;;;5072686;27;45432;-71
2023/05/25 12:42:15;;;;;;;4.90;2.97;;;23.70;45.70;;;;;;5071388;28;45295;-70
2023/05/25 12:44:43;;;;;;;5.68;3.00;;;23.80;45.80;;;;;;5067384;28;45442;-71
2023/05/25 12:47:10;;;;;;;4.28;3.30;;;23.80;45.70;;;;;;5072664;27;46695;-70
2023/05/25 12:49:37;;;;;;;3.90;2.72;;;23.90;45.90;;;;;;5077025;27;45327;-71